createdAt,value
2018-12-11T00:02:22.277Z,3.60
2018-12-11T00:05:34.339Z,3.70
2018-12-11T00:08:43.187Z,3.70
2018-12-11T00:11:54.184Z,3.70
2018-12-11T00:15:05.024Z,3.80
2018-12-11T00:18:14.024Z,3.80
2018-12-11T00:24:41.348Z,3.70
2018-12-11T00:27:50.354Z,3.70
2018-12-11T00:31:01.213Z,3.70
2018-12-11T00:34:12.143Z,3.70
2018-12-11T00:37:21.080Z,3.80
2018-12-11T00:40:32.013Z,3.80
2018-12-11T00:43:42.942Z,3.80
2018-12-11T00:46:46.260Z,3.80
2018-12-11T00:49:57.064Z,3.80
2018-12-11T00:53:09.116Z,3.80
2018-12-11T00:56:13.384Z,3.80
2018-12-11T00:59:24.021Z,3.90
2018-12-11T01:02:34.932Z,3.80
2018-12-11T01:05:45.874Z,3.80
2018-12-11T01:08:50.243Z,3.90
2018-12-11T01:12:00.924Z,3.80
2018-12-11T01:15:11.888Z,3.80
2018-12-11T01:18:20.926Z,3.80
2018-12-11T01:21:33.043Z,3.70
2018-12-11T01:24:41.201Z,3.80
2018-12-11T01:27:50.248Z,3.70
2018-12-11T01:31:01.108Z,3.70
2018-12-11T01:34:10.224Z,3.70
2018-12-11T01:37:19.248Z,3.70
2018-12-11T01:40:30.249Z,3.70
2018-12-11T01:43:41.137Z,3.80
2018-12-11T01:46:50.028Z,3.70
2018-12-11T01:50:02.316Z,3.70
2018-12-11T01:53:10.542Z,3.60
2018-12-11T01:56:14.809Z,3.60
2018-12-11T01:59:25.624Z,3.60
2018-12-11T02:02:34.664Z,3.60
2018-12-11T02:05:46.736Z,3.60
2018-12-11T02:08:59.840Z,3.60
2018-12-11T02:12:10.715Z,3.60
2018-12-11T02:15:21.589Z,3.60
2018-12-11T02:18:29.848Z,3.60
2018-12-11T02:21:42.049Z,3.50
2018-12-11T02:24:49.777Z,3.50
2018-12-11T02:27:58.933Z,3.50
2018-12-11T02:31:09.852Z,3.50
2018-12-11T02:34:18.929Z,3.50
2018-12-11T02:37:27.157Z,3.50
2018-12-11T02:43:59.300Z,3.50
2018-12-11T02:47:02.789Z,3.50
2018-12-11T02:50:11.449Z,3.50
2018-12-11T02:53:23.553Z,3.50
2018-12-11T02:56:31.839Z,3.60
2018-12-11T02:59:40.761Z,3.50
2018-12-11T03:02:49.602Z,3.50
2018-12-11T03:06:00.265Z,3.50
2018-12-11T03:09:09.220Z,3.50
2018-12-11T03:12:18.295Z,3.50
2018-12-11T03:15:29.261Z,3.60
2018-12-11T03:18:38.273Z,3.60
2018-12-11T03:21:47.164Z,3.50
2018-12-11T03:24:57.986Z,3.50
2018-12-11T03:28:06.291Z,3.50
2018-12-11T03:34:21.954Z,3.50
2018-12-11T03:37:26.199Z,3.50
2018-12-11T03:40:36.855Z,3.50
2018-12-11T03:43:47.880Z,3.40
2018-12-11T03:46:56.946Z,3.40
2018-12-11T03:50:09.126Z,3.40
2018-12-11T03:53:20.002Z,3.50
2018-12-11T03:56:28.917Z,3.50
2018-12-11T03:59:40.941Z,3.50
2018-12-11T04:02:49.932Z,3.50
2018-12-11T04:06:00.640Z,3.50
2018-12-11T04:09:11.571Z,3.50
2018-12-11T04:12:22.650Z,3.60
2018-12-11T04:15:33.440Z,3.50
2018-12-11T04:18:41.609Z,3.50
2018-12-11T04:21:50.706Z,3.50
2018-12-11T04:24:58.928Z,3.50
2018-12-11T04:28:07.184Z,3.50
2018-12-11T04:31:18.088Z,3.60
2018-12-11T04:34:29.083Z,3.60
2018-12-11T04:37:33.075Z,3.60
2018-12-11T04:40:43.858Z,3.60
2018-12-11T04:43:56.017Z,3.60
2018-12-11T04:47:00.228Z,3.60
2018-12-11T04:50:11.012Z,3.50
2018-12-11T04:53:23.231Z,3.60
2018-12-11T04:56:31.453Z,3.60
2018-12-11T04:59:42.316Z,3.60
2018-12-11T05:02:54.392Z,3.60
2018-12-11T05:06:06.435Z,3.70
2018-12-11T05:09:18.596Z,3.60
2018-12-11T05:12:29.432Z,3.70
2018-12-11T05:15:38.506Z,3.60
2018-12-11T05:18:46.687Z,3.70
2018-12-11T05:21:57.492Z,3.70
2018-12-11T05:25:08.452Z,3.60
2018-12-11T05:28:17.344Z,3.60
2018-12-11T05:31:26.304Z,3.60
2018-12-11T05:34:34.492Z,3.60
2018-12-11T05:37:40.759Z,3.60
2018-12-11T05:40:49.738Z,3.70
2018-12-11T05:44:00.544Z,3.70
2018-12-11T05:47:08.933Z,3.60
2018-12-11T05:50:21.007Z,3.70
2018-12-11T05:53:32.044Z,3.70
2018-12-11T05:56:41.160Z,3.70
2018-12-11T05:59:52.036Z,3.70
2018-12-11T06:03:04.411Z,3.70
2018-12-11T06:06:13.275Z,3.70
2018-12-11T06:09:24.332Z,3.70
2018-12-11T06:12:36.368Z,3.60
2018-12-11T06:15:48.675Z,3.70
2018-12-11T06:18:52.841Z,3.70
2018-12-11T06:22:03.683Z,3.70
2018-12-11T06:25:11.829Z,3.60
2018-12-11T06:28:20.865Z,3.60
2018-12-11T06:31:32.953Z,3.60
2018-12-11T06:34:43.978Z,3.60
2018-12-11T06:37:52.112Z,3.60
2018-12-11T06:41:01.063Z,3.70
2018-12-11T06:44:13.205Z,3.70
2018-12-11T06:47:21.332Z,3.70
2018-12-11T06:50:32.288Z,3.60
2018-12-11T06:53:43.233Z,3.60
2018-12-11T06:56:51.449Z,3.60
2018-12-11T07:00:02.566Z,3.60
2018-12-11T07:03:13.318Z,3.60
2018-12-11T07:06:22.387Z,3.60
2018-12-11T07:09:33.368Z,3.60
2018-12-11T07:12:41.703Z,3.60
2018-12-11T07:15:50.452Z,3.60
2018-12-11T07:18:59.457Z,3.60
2018-12-11T07:22:08.525Z,3.60
2018-12-11T07:25:17.414Z,3.50
2018-12-11T07:28:26.384Z,3.50
2018-12-11T07:31:37.323Z,3.50
2018-12-11T07:34:46.377Z,3.50
2018-12-11T07:37:54.567Z,3.40
2018-12-11T07:41:02.712Z,3.40
2018-12-11T07:44:13.519Z,3.30
2018-12-11T07:47:22.616Z,3.30
2018-12-11T07:50:31.620Z,3.30
2018-12-11T07:53:43.724Z,3.30
2018-12-11T07:56:47.877Z,3.40
2018-12-11T07:59:58.567Z,3.40
2018-12-11T08:03:07.642Z,3.30
2018-12-11T08:06:11.716Z,3.30
2018-12-11T08:09:20.403Z,3.30
2018-12-11T08:12:31.115Z,3.40
2018-12-11T08:15:40.261Z,3.30
2018-12-11T08:18:48.437Z,3.30
2018-12-11T08:21:59.458Z,3.40
2018-12-11T08:25:11.189Z,3.30
2018-12-11T08:28:19.397Z,3.30
2018-12-11T08:31:30.256Z,3.30
2018-12-11T08:34:42.307Z,3.40
2018-12-11T08:37:45.676Z,3.40
2018-12-11T08:40:54.472Z,3.40
2018-12-11T08:44:07.621Z,3.30
2018-12-11T08:47:11.805Z,3.30
2018-12-11T08:50:22.329Z,3.40
2018-12-11T08:53:33.250Z,3.30
2018-12-11T08:56:41.600Z,3.30
2018-12-11T08:59:52.519Z,3.30
2018-12-11T09:03:05.705Z,3.30
2018-12-11T09:06:14.649Z,3.30
2018-12-11T09:09:25.396Z,3.40
2018-12-11T09:12:37.473Z,3.40
2018-12-11T09:15:49.512Z,3.40
2018-12-11T09:18:57.688Z,3.30
2018-12-11T09:22:08.629Z,3.30
2018-12-11T09:25:16.849Z,3.30
2018-12-11T09:28:21.049Z,3.40
2018-12-11T09:31:31.864Z,3.40
2018-12-11T09:34:43.900Z,3.40
2018-12-11T09:37:52.996Z,3.50
2018-12-11T09:41:05.200Z,3.50
2018-12-11T09:44:17.420Z,3.50
2018-12-11T09:47:25.723Z,3.60
2018-12-11T09:50:36.599Z,3.60
2018-12-11T09:53:47.563Z,3.70
2018-12-11T09:56:57.975Z,3.80
2018-12-11T10:00:07.210Z,3.90
2018-12-11T10:03:15.512Z,3.90
2018-12-11T10:06:24.384Z,4.00
2018-12-11T10:09:33.507Z,4.00
2018-12-11T10:12:42.697Z,4.10
2018-12-11T10:15:53.506Z,4.10
2018-12-11T10:18:56.896Z,4.10
2018-12-11T10:22:07.684Z,4.10
2018-12-11T10:25:16.552Z,4.10
2018-12-11T10:28:25.526Z,4.10
2018-12-11T10:31:36.412Z,4.10
2018-12-11T10:34:44.695Z,4.10
2018-12-11T10:37:53.571Z,4.10
2018-12-11T10:41:04.455Z,4.10
2018-12-11T10:44:16.540Z,4.10
2018-12-11T10:47:22.051Z,4.20
2018-12-11T10:50:30.608Z,4.30
2018-12-11T10:53:39.564Z,4.30
2018-12-11T10:56:48.504Z,4.20
2018-12-11T10:59:59.306Z,4.20
2018-12-11T11:03:12.502Z,4.20
2018-12-11T11:06:23.782Z,4.10
2018-12-11T11:09:36.268Z,4.20
2018-12-11T11:12:48.521Z,4.20
2018-12-11T11:15:59.264Z,4.20
2018-12-11T11:19:09.247Z,4.20
2018-12-11T11:22:22.294Z,4.20
2018-12-11T11:25:31.377Z,4.30
2018-12-11T11:28:40.404Z,4.30
2018-12-11T11:32:07.602Z,4.30
2018-12-11T11:35:18.156Z,4.20
2018-12-11T11:38:27.212Z,4.30
2018-12-11T11:41:37.050Z,4.30
2018-12-11T11:44:48.124Z,4.30
2018-12-11T11:47:56.981Z,4.30
2018-12-11T11:51:05.861Z,4.40
2018-12-11T11:54:16.727Z,4.50
2018-12-11T11:57:29.738Z,4.50
2018-12-11T12:00:38.603Z,4.50
2018-12-11T12:03:49.622Z,4.60
2018-12-11T12:06:53.924Z,4.70
2018-12-11T12:10:02.833Z,4.70
2018-12-11T12:13:14.521Z,4.80
2018-12-11T12:16:22.704Z,4.70
2018-12-11T12:19:34.880Z,4.80
2018-12-11T12:22:45.772Z,4.80
2018-12-11T12:25:54.876Z,4.80
2018-12-11T12:28:58.954Z,4.80
2018-12-11T12:32:07.781Z,4.90
2018-12-11T12:35:18.627Z,4.90
2018-12-11T12:38:27.673Z,4.90
2018-12-11T12:41:38.661Z,4.90
2018-12-11T12:44:50.802Z,4.90
2018-12-11T12:47:55.095Z,4.90
2018-12-11T12:51:05.849Z,4.90
2018-12-11T12:54:16.837Z,4.80
2018-12-11T12:57:26.030Z,4.90
2018-12-11T13:00:36.772Z,4.90
2018-12-11T13:03:49.740Z,4.90
2018-12-11T13:06:57.942Z,4.90
2018-12-11T13:10:08.788Z,4.80
2018-12-11T13:13:17.766Z,4.80
2018-12-11T13:16:26.916Z,4.80
2018-12-11T13:19:37.851Z,4.80
2018-12-11T13:22:50.000Z,4.80
2018-12-11T13:25:58.788Z,4.80
2018-12-11T13:29:07.040Z,4.80
2018-12-11T13:32:15.955Z,4.90
2018-12-11T13:35:26.720Z,5.00
2018-12-11T13:38:35.801Z,5.00
2018-12-11T13:41:46.736Z,5.00
2018-12-11T13:44:58.780Z,5.00
2018-12-11T13:48:06.946Z,5.00
2018-12-11T13:51:17.884Z,5.10
2018-12-11T13:54:28.783Z,5.10
2018-12-11T13:57:37.957Z,5.10
2018-12-11T14:00:48.912Z,5.10
2018-12-11T14:03:59.909Z,5.20
2018-12-11T14:07:08.996Z,5.10
2018-12-11T14:10:19.983Z,4.90
2018-12-11T14:13:30.879Z,4.80
2018-12-11T14:16:34.970Z,4.70
2018-12-11T14:19:45.663Z,4.70
2018-12-11T14:22:56.556Z,4.60
2018-12-11T14:26:04.940Z,4.60
2018-12-11T14:29:15.744Z,4.50
2018-12-11T14:32:24.616Z,4.50
2018-12-11T14:35:36.480Z,4.60
2018-12-11T14:38:45.555Z,4.60
2018-12-11T14:41:56.368Z,4.60
2018-12-11T14:45:06.223Z,4.50
2018-12-11T14:48:09.652Z,4.50
2018-12-11T14:51:20.314Z,4.50
2018-12-11T14:54:31.164Z,4.40
2018-12-11T14:57:39.432Z,4.40
2018-12-11T15:00:50.356Z,4.30
2018-12-11T15:04:02.602Z,4.30
2018-12-11T15:07:11.656Z,4.40
2018-12-11T15:10:22.575Z,4.30
2018-12-11T15:13:33.402Z,4.30
2018-12-11T15:16:42.529Z,4.30
2018-12-11T15:19:51.481Z,4.20
2018-12-11T15:22:59.664Z,4.30
2018-12-11T15:26:10.575Z,4.30
2018-12-11T15:29:21.529Z,4.30
2018-12-11T15:32:32.500Z,4.30
2018-12-11T15:35:44.670Z,4.30
2018-12-11T15:38:52.832Z,4.30
2018-12-11T15:42:01.812Z,4.30
2018-12-11T15:45:12.703Z,4.30
2018-12-11T15:48:21.820Z,4.30
2018-12-11T15:51:32.816Z,4.30
2018-12-11T15:54:43.612Z,4.30
2018-12-11T15:57:52.712Z,4.30
2018-12-11T16:01:03.576Z,4.30
2018-12-11T16:04:15.689Z,4.20
2018-12-11T16:07:24.668Z,4.20
2018-12-11T16:10:33.668Z,4.10
2018-12-11T16:13:44.514Z,4.10
2018-12-11T16:16:53.468Z,4.10
2018-12-11T16:20:04.620Z,4.10
2018-12-11T16:23:16.853Z,4.10
2018-12-11T16:26:25.050Z,4.10
2018-12-11T16:29:35.984Z,4.20
2018-12-11T16:32:46.997Z,4.20
2018-12-11T16:35:57.853Z,4.20
2018-12-11T16:39:06.225Z,4.20
2018-12-11T16:42:17.069Z,4.10
2018-12-11T16:45:29.025Z,4.20
2018-12-11T16:48:37.848Z,4.20
2018-12-11T16:51:48.638Z,4.30
2018-12-11T16:55:00.717Z,4.20
2018-12-11T16:58:05.034Z,4.10
2018-12-11T17:01:13.612Z,4.10
2018-12-11T17:04:24.537Z,4.10
2018-12-11T17:07:28.036Z,4.10
2018-12-11T17:10:38.740Z,4.20
2018-12-11T17:13:49.726Z,4.20
2018-12-11T17:16:57.965Z,4.20
2018-12-11T17:20:08.824Z,4.20
2018-12-11T17:23:19.717Z,4.20
2018-12-11T17:26:28.669Z,4.20
2018-12-11T17:29:36.856Z,4.10
2018-12-11T17:32:47.721Z,4.10
2018-12-11T17:35:58.450Z,4.10
2018-12-11T17:39:07.148Z,4.10
2018-12-11T17:42:15.651Z,4.10
2018-12-11T17:45:23.920Z,4.10
2018-12-11T17:48:32.221Z,4.10
2018-12-11T17:51:42.992Z,4.20
2018-12-11T17:54:55.268Z,4.20
2018-12-11T17:57:58.704Z,4.20
2018-12-11T18:01:09.312Z,4.20
2018-12-11T18:04:18.192Z,4.20
2018-12-11T18:07:26.309Z,4.20
2018-12-11T18:10:41.305Z,4.20
2018-12-11T18:13:53.564Z,4.20
2018-12-11T18:17:01.781Z,4.20
2018-12-11T18:20:12.316Z,4.20
2018-12-11T18:23:21.276Z,4.20
2018-12-11T18:26:24.839Z,4.20
2018-12-11T18:29:35.605Z,4.20
2018-12-11T18:32:47.776Z,4.20
2018-12-11T18:35:58.533Z,4.20
2018-12-11T18:39:08.883Z,4.20
2018-12-11T18:42:20.752Z,4.20
2018-12-11T18:45:29.714Z,4.20
2018-12-11T18:48:33.022Z,4.20
2018-12-11T18:51:41.778Z,4.20
2018-12-11T18:54:52.681Z,4.20
2018-12-11T18:57:56.867Z,4.20
2018-12-11T19:01:08.679Z,4.20
2018-12-11T19:04:19.665Z,4.10
2018-12-11T19:07:23.840Z,4.10
2018-12-11T19:10:32.585Z,4.20
2018-12-11T19:13:45.616Z,4.10
2018-12-11T19:16:53.789Z,4.20
2018-12-11T19:20:05.174Z,4.20
2018-12-11T19:23:17.247Z,4.20
2018-12-11T19:26:21.412Z,4.20
2018-12-11T19:29:33.832Z,4.20
2018-12-11T19:32:44.868Z,4.10
2018-12-11T19:35:53.852Z,4.10
2018-12-11T19:39:04.924Z,4.10
2018-12-11T19:42:15.595Z,4.10
2018-12-11T19:45:26.569Z,4.20
2018-12-11T19:48:34.827Z,4.20
2018-12-11T19:51:45.513Z,4.20
2018-12-11T19:54:56.492Z,4.20
2018-12-11T19:58:04.643Z,4.20
2018-12-11T20:01:15.721Z,4.20
2018-12-11T20:04:26.692Z,4.20
2018-12-11T20:07:34.860Z,4.20
2018-12-11T20:10:47.597Z,4.20
2018-12-11T20:14:00.063Z,4.20
2018-12-11T20:17:04.385Z,4.20
2018-12-11T20:20:19.132Z,4.10
2018-12-11T20:23:27.296Z,4.10
2018-12-11T20:26:39.282Z,4.10
2018-12-11T20:29:47.456Z,4.10
2018-12-11T20:32:55.592Z,4.00
2018-12-11T20:36:07.640Z,4.00
2018-12-11T20:39:18.495Z,4.00
2018-12-11T20:42:30.735Z,4.00
2018-12-11T20:45:42.976Z,3.90
2018-12-11T20:48:51.968Z,4.00
2018-12-11T20:52:02.945Z,4.00
2018-12-11T20:55:13.937Z,4.00
2018-12-11T20:58:22.140Z,4.00
2018-12-11T21:01:31.197Z,4.00
2018-12-11T21:04:43.344Z,3.90
2018-12-11T21:07:51.647Z,3.90
2018-12-11T21:11:02.660Z,3.90
2018-12-11T21:14:13.591Z,3.90
2018-12-11T21:17:16.855Z,3.90
2018-12-11T21:20:25.708Z,3.90
2018-12-11T21:23:36.615Z,3.90
2018-12-11T21:26:44.898Z,3.90
2018-12-11T21:29:55.747Z,3.90
2018-12-11T21:33:04.869Z,3.90
2018-12-11T21:36:13.800Z,3.80
2018-12-11T21:39:22.046Z,3.80
2018-12-11T21:42:32.960Z,3.80
2018-12-11T21:45:43.983Z,3.80
2018-12-11T21:48:52.300Z,3.80
2018-12-11T21:52:01.169Z,3.80
2018-12-11T21:55:13.201Z,3.80
2018-12-11T21:58:17.408Z,3.80
2018-12-11T22:01:26.154Z,3.80
2018-12-11T22:04:35.213Z,3.80
2018-12-11T22:07:43.328Z,3.70
2018-12-11T22:10:54.072Z,3.70
2018-12-11T22:14:05.101Z,3.70
2018-12-11T22:17:14.127Z,3.70
2018-12-11T22:20:25.098Z,3.70
2018-12-11T22:23:37.216Z,3.70
2018-12-11T22:26:46.208Z,3.60
2018-12-11T22:29:58.297Z,3.60
2018-12-11T22:33:09.288Z,3.50
2018-12-11T22:36:18.340Z,3.50
2018-12-11T22:39:29.288Z,3.50
2018-12-11T22:42:40.247Z,3.50
2018-12-11T22:45:51.029Z,3.50
2018-12-11T22:48:59.164Z,3.50
2018-12-11T22:52:07.427Z,3.40
2018-12-11T22:55:16.331Z,3.40
2018-12-11T22:58:25.178Z,3.40
2018-12-11T23:01:36.196Z,3.30
2018-12-11T23:04:47.133Z,3.30
2018-12-11T23:07:50.492Z,3.20
2018-12-11T23:11:01.130Z,3.20
2018-12-11T23:14:10.192Z,3.30
2018-12-11T23:17:13.667Z,3.30
2018-12-11T23:20:22.549Z,3.40
2018-12-11T23:23:34.614Z,3.30
2018-12-11T23:26:43.655Z,3.30
2018-12-11T23:29:55.993Z,3.30
2018-12-11T23:33:05.080Z,3.40
2018-12-11T23:36:16.081Z,3.40
2018-12-11T23:39:27.052Z,3.40
2018-12-11T23:42:39.394Z,3.40
2018-12-11T23:45:48.352Z,3.40
2018-12-11T23:48:52.700Z,3.40
2018-12-11T23:52:03.516Z,3.30
2018-12-11T23:55:11.704Z,3.30
2018-12-11T23:58:19.981Z,3.30
